createdAt,value
2023-02-17T00:00:58.715Z,101283.91
2023-02-17T00:03:25.254Z,101285.09
2023-02-17T00:05:51.926Z,101286.31
2023-02-17T00:08:18.336Z,101276.59
2023-02-17T00:10:44.734Z,101275.97
2023-02-17T00:13:11.146Z,101276.22
2023-02-17T00:15:40.618Z,101255.56
2023-02-17T00:18:06.991Z,101257.19
2023-02-17T00:20:33.412Z,101246.75
2023-02-17T00:22:59.777Z,101247.06
2023-02-17T00:25:26.392Z,101248.47
2023-02-17T00:27:52.808Z,101239.03
2023-02-17T00:30:19.377Z,101237.22
2023-02-17T00:32:45.939Z,101237.25
2023-02-17T00:35:12.432Z,101237.00
2023-02-17T00:37:40.262Z,101233.22
2023-02-17T00:40:07.239Z,101233.13
2023-02-17T00:42:33.597Z,101233.91
2023-02-17T00:44:59.989Z,101230.56
2023-02-17T00:47:26.352Z,101222.50
2023-02-17T00:49:52.732Z,101226.66
2023-02-17T00:52:19.102Z,101217.34
2023-02-17T00:54:45.527Z,101216.59
2023-02-17T00:57:11.916Z,101210.53
2023-02-17T00:59:38.286Z,101213.00
2023-02-17T01:02:04.664Z,101216.47
2023-02-17T01:04:31.250Z,101219.84
2023-02-17T01:06:57.648Z,101219.59
2023-02-17T01:09:24.360Z,101211.28
2023-02-17T01:11:50.745Z,101214.81
2023-02-17T01:14:17.734Z,101219.22
2023-02-17T01:16:47.646Z,101212.00
2023-02-17T01:19:17.594Z,101215.09
2023-02-17T01:21:44.532Z,101207.47
2023-02-17T01:24:12.069Z,101195.19
2023-02-17T01:26:39.283Z,101199.59
2023-02-17T01:29:06.754Z,101200.88
2023-02-17T01:31:33.666Z,101187.69
2023-02-17T01:34:01.805Z,101190.31
2023-02-17T01:36:28.980Z,101178.66
2023-02-17T01:38:55.433Z,101176.75
2023-02-17T01:41:26.762Z,101181.91
2023-02-17T01:44:21.786Z,101175.19
2023-02-17T01:46:49.702Z,101170.91
2023-02-17T01:49:33.297Z,101171.81
2023-02-17T01:52:06.697Z,101179.84
2023-02-17T01:54:42.592Z,101177.50
2023-02-17T01:57:09.847Z,101180.47
2023-02-17T01:59:36.631Z,101173.25
2023-02-17T02:02:04.351Z,101166.53
2023-02-17T02:04:33.308Z,101167.19
2023-02-17T02:06:59.782Z,101165.09
2023-02-17T02:09:31.301Z,101158.50
2023-02-17T02:11:59.828Z,101167.56
2023-02-17T02:14:26.314Z,101173.25
2023-02-17T02:17:14.630Z,101166.53
2023-02-17T02:20:19.565Z,101160.06
2023-02-17T02:23:16.941Z,101170.78
2023-02-17T02:26:08.198Z,101170.53
2023-02-17T02:28:46.843Z,101164.97
2023-02-17T02:31:16.285Z,101163.03
2023-02-17T02:33:55.376Z,101163.81
2023-02-17T02:36:26.854Z,101161.88
2023-02-17T02:38:58.832Z,101157.75
2023-02-17T02:41:34.946Z,101154.00
2023-02-17T02:44:05.788Z,101148.84
2023-02-17T02:46:32.238Z,101146.13
2023-02-17T02:48:59.139Z,101139.75
2023-02-17T02:52:03.061Z,101122.72
2023-02-17T02:54:49.601Z,101127.63
2023-02-17T02:57:34.754Z,101112.75
2023-02-17T03:00:10.179Z,101111.22
2023-02-17T03:02:57.168Z,101098.94
2023-02-17T03:05:57.015Z,101103.47
2023-02-17T03:08:33.438Z,101098.16
2023-02-17T03:11:00.349Z,101104.13
2023-02-17T03:13:26.824Z,101096.72
2023-02-17T03:15:53.305Z,101101.53
2023-02-17T03:18:19.789Z,101103.47
2023-02-17T03:20:52.235Z,101107.88
2023-02-17T03:23:18.802Z,101109.41
2023-02-17T03:25:45.211Z,101110.66
2023-02-17T03:28:11.611Z,101120.00
2023-02-17T03:30:38.179Z,101106.03
2023-02-17T03:33:04.574Z,101096.69
2023-02-17T03:35:31.089Z,101092.31
2023-02-17T03:37:57.448Z,101088.16
2023-02-17T03:40:24.037Z,101086.34
2023-02-17T03:42:50.404Z,101078.34
2023-02-17T03:45:16.780Z,101078.06
2023-02-17T03:47:43.184Z,101083.66
2023-02-17T03:50:09.782Z,101087.41
2023-02-17T03:52:36.241Z,101104.69
2023-02-17T03:55:02.612Z,101096.56
2023-02-17T03:57:29.029Z,101095.50
2023-02-17T03:59:55.391Z,101085.22
2023-02-17T04:02:21.794Z,101085.81
2023-02-17T04:04:48.303Z,101088.00
2023-02-17T04:07:14.752Z,101087.81
2023-02-17T04:09:41.464Z,101089.63
2023-02-17T04:12:07.881Z,101082.66
2023-02-17T04:14:34.244Z,101076.34
2023-02-17T04:17:00.732Z,101074.81
2023-02-17T04:19:27.100Z,101081.75
2023-02-17T04:21:53.534Z,101081.41
2023-02-17T04:24:19.937Z,101075.41
2023-02-17T04:26:46.387Z,101069.22
2023-02-17T04:29:12.754Z,101069.72
2023-02-17T04:31:39.253Z,101069.47
2023-02-17T04:34:05.675Z,101060.69
2023-02-17T04:36:33.804Z,101058.59
2023-02-17T04:39:00.274Z,101047.22
2023-02-17T04:41:26.972Z,101042.72
2023-02-17T04:43:53.368Z,101051.75
2023-02-17T04:46:19.782Z,101056.25
2023-02-17T04:48:46.225Z,101042.31
2023-02-17T04:51:12.632Z,101050.81
2023-02-17T04:53:39.095Z,101048.38
2023-02-17T04:56:06.323Z,101047.81
2023-02-17T04:58:33.023Z,101038.94
2023-02-17T05:01:00.740Z,101037.88
2023-02-17T05:03:27.158Z,101039.72
2023-02-17T05:05:53.529Z,101038.00
2023-02-17T05:08:19.904Z,101030.13
2023-02-17T05:10:46.273Z,101039.94
2023-02-17T05:13:12.699Z,101043.03
2023-02-17T05:15:39.162Z,101039.28
2023-02-17T05:18:05.883Z,101051.34
2023-02-17T05:20:32.270Z,101044.72
2023-02-17T05:22:58.665Z,101054.53
2023-02-17T05:25:25.111Z,101043.78
2023-02-17T05:27:51.522Z,101043.28
2023-02-17T05:30:18.042Z,101043.63
2023-02-17T05:32:44.509Z,101030.34
2023-02-17T05:35:10.940Z,101029.44
2023-02-17T05:37:37.518Z,101028.75
2023-02-17T05:40:04.304Z,101029.53
2023-02-17T05:42:30.781Z,101030.97
2023-02-17T05:44:57.230Z,101030.03
2023-02-17T05:47:23.772Z,101013.00
2023-02-17T05:49:50.177Z,101025.06
2023-02-17T05:52:18.143Z,101028.09
2023-02-17T05:54:44.550Z,101022.56
2023-02-17T05:57:10.954Z,101027.22
2023-02-17T05:59:37.323Z,101026.44
2023-02-17T06:02:03.833Z,101008.22
2023-02-17T06:04:30.238Z,100997.97
2023-02-17T06:06:56.697Z,101000.06
2023-02-17T06:09:23.096Z,100984.94
2023-02-17T06:11:55.524Z,100994.72
2023-02-17T06:14:22.145Z,100986.69
2023-02-17T06:16:48.590Z,100992.91
2023-02-17T06:19:14.995Z,101004.34
2023-02-17T06:21:41.394Z,101003.94
2023-02-17T06:24:07.854Z,101006.50
2023-02-17T06:26:34.238Z,101002.66
2023-02-17T06:29:00.668Z,101003.81
2023-02-17T06:31:27.128Z,101004.47
2023-02-17T06:33:53.621Z,101007.28
2023-02-17T06:36:20.106Z,101010.81
2023-02-17T06:38:46.538Z,101018.19
2023-02-17T06:41:12.915Z,101009.09
2023-02-17T06:43:39.326Z,101004.47
2023-02-17T06:46:06.148Z,101009.09
2023-02-17T06:48:35.809Z,101000.19
2023-02-17T06:51:02.218Z,101002.75
2023-02-17T06:53:28.624Z,101002.13
2023-02-17T06:55:55.045Z,100994.47
2023-02-17T06:58:21.658Z,101005.75
2023-02-17T07:00:48.143Z,101003.28
2023-02-17T07:03:14.627Z,101002.13
2023-02-17T07:05:41.058Z,100996.16
2023-02-17T07:08:07.520Z,101006.63
2023-02-17T07:10:33.995Z,101024.81
2023-02-17T07:13:00.433Z,101018.84
2023-02-17T07:15:26.885Z,101024.84
2023-02-17T07:17:53.304Z,101037.53
2023-02-17T07:20:19.774Z,101034.31
2023-02-17T07:22:46.153Z,101028.03
2023-02-17T07:25:12.549Z,101021.69
2023-02-17T07:27:38.930Z,101028.16
2023-02-17T07:30:06.377Z,101034.09
2023-02-17T07:32:33.147Z,101048.97
2023-02-17T07:34:59.547Z,101056.72
2023-02-17T07:37:25.939Z,101049.38
2023-02-17T07:39:52.359Z,101044.44
2023-02-17T07:42:18.748Z,101041.59
2023-02-17T07:44:45.211Z,101039.25
2023-02-17T07:47:11.657Z,101036.66
2023-02-17T07:49:38.354Z,101032.28
2023-02-17T07:52:05.515Z,101039.13
2023-02-17T07:54:32.033Z,101033.44
2023-02-17T07:56:58.542Z,101027.59
2023-02-17T07:59:24.940Z,101015.38
2023-02-17T08:01:51.334Z,101020.56
2023-02-17T08:04:17.842Z,101006.09
2023-02-17T08:06:44.356Z,101002.06
2023-02-17T08:09:30.359Z,101002.38
2023-02-17T08:12:15.277Z,101011.34
2023-02-17T08:14:41.735Z,101004.81
2023-02-17T08:17:08.217Z,101002.38
2023-02-17T08:19:47.490Z,100991.09
2023-02-17T08:22:16.384Z,100989.41
2023-02-17T08:24:42.901Z,100983.34
2023-02-17T08:27:09.274Z,100986.81
2023-02-17T08:29:35.634Z,100980.44
2023-02-17T08:32:02.122Z,100983.91
2023-02-17T08:34:33.434Z,100974.47
2023-02-17T08:37:01.380Z,100971.56
2023-02-17T08:39:28.414Z,100973.81
2023-02-17T08:41:55.245Z,100970.69
2023-02-17T08:44:22.450Z,100968.97
2023-02-17T08:46:50.138Z,100958.31
2023-02-17T08:49:19.059Z,100968.66
2023-02-17T08:51:45.632Z,100968.22
2023-02-17T08:54:12.726Z,100979.63
2023-02-17T08:56:39.995Z,100968.38
2023-02-17T08:59:08.076Z,100967.81
2023-02-17T09:01:35.330Z,100968.16
2023-02-17T09:04:03.642Z,100970.78
2023-02-17T09:06:38.956Z,100979.78
2023-02-17T09:09:07.650Z,100980.78
2023-02-17T09:11:34.390Z,100991.16
2023-02-17T09:14:00.857Z,100992.19
2023-02-17T09:16:27.360Z,100989.25
2023-02-17T09:18:54.512Z,100986.59
2023-02-17T09:21:21.299Z,100975.69
2023-02-17T09:23:49.523Z,100968.91
2023-02-17T09:26:17.225Z,100950.09
2023-02-17T09:28:44.240Z,100964.19
2023-02-17T09:31:20.148Z,100966.66
2023-02-17T09:33:47.757Z,100968.38
2023-02-17T09:36:15.849Z,100963.31
2023-02-17T09:38:42.708Z,100952.03
2023-02-17T09:41:15.045Z,100958.13
2023-02-17T09:43:41.538Z,100977.94
2023-02-17T09:46:17.366Z,100981.00
2023-02-17T09:48:44.528Z,100979.09
2023-02-17T09:51:21.872Z,100993.06
2023-02-17T09:54:07.509Z,101014.72
2023-02-17T09:56:37.150Z,101014.28
2023-02-17T09:59:26.749Z,100999.16
2023-02-17T10:01:53.992Z,100994.84
2023-02-17T10:04:34.337Z,101006.94
2023-02-17T10:07:05.472Z,101020.78
2023-02-17T10:09:40.690Z,101020.72
2023-02-17T10:12:10.120Z,101022.81
2023-02-17T10:14:52.589Z,101021.94
2023-02-17T10:17:32.923Z,101030.75
2023-02-17T10:20:16.114Z,101020.16
2023-02-17T10:22:44.235Z,101011.69
2023-02-17T10:25:47.153Z,101010.97
2023-02-17T10:28:22.336Z,101009.75
2023-02-17T10:31:11.903Z,101005.13
2023-02-17T10:34:03.527Z,100999.59
2023-02-17T10:36:52.423Z,101018.00
2023-02-17T10:39:40.311Z,101006.03
2023-02-17T10:42:11.451Z,101003.19
2023-02-17T10:44:37.934Z,101009.44
2023-02-17T10:47:04.615Z,100982.91
2023-02-17T10:49:43.210Z,100971.84
2023-02-17T10:52:13.768Z,100972.50
2023-02-17T10:54:46.249Z,100970.56
2023-02-17T10:57:13.432Z,100959.72
2023-02-17T10:59:45.087Z,100979.06
2023-02-17T11:02:21.974Z,100966.09
2023-02-17T11:04:50.945Z,100970.28
2023-02-17T11:07:19.841Z,100957.72
2023-02-17T11:09:56.166Z,100951.06
2023-02-17T11:12:29.885Z,100944.97
2023-02-17T11:14:56.342Z,100945.75
2023-02-17T11:17:35.842Z,100935.56
2023-02-17T11:20:28.128Z,100945.22
2023-02-17T11:23:13.373Z,100940.94
2023-02-17T11:25:39.660Z,100958.13
2023-02-17T11:28:07.269Z,100958.38
2023-02-17T11:30:34.123Z,100968.16
2023-02-17T11:33:10.480Z,100961.56
2023-02-17T11:35:36.683Z,100952.44
2023-02-17T11:38:03.862Z,100954.50
2023-02-17T11:40:30.744Z,100939.53
2023-02-17T11:43:00.585Z,100954.09
2023-02-17T11:45:29.011Z,100948.91
2023-02-17T11:48:01.480Z,100953.91
2023-02-17T11:50:45.284Z,100949.09
2023-02-17T11:53:14.552Z,100964.66
2023-02-17T11:55:46.320Z,100960.38
2023-02-17T11:58:31.366Z,100964.31
2023-02-17T12:01:17.865Z,100952.34
2023-02-17T12:04:03.004Z,100939.44
2023-02-17T12:06:38.543Z,100934.94
2023-02-17T12:09:14.664Z,100924.75
2023-02-17T12:11:44.410Z,100915.88
2023-02-17T12:14:19.770Z,100913.97
2023-02-17T12:16:57.913Z,100909.75
2023-02-17T12:19:43.006Z,100909.69
2023-02-17T12:22:18.901Z,100902.69
2023-02-17T12:25:04.062Z,100899.25
2023-02-17T12:27:49.675Z,100912.53
2023-02-17T12:30:33.581Z,100908.13
2023-02-17T12:32:59.829Z,100905.47
2023-02-17T12:35:27.349Z,100899.75
2023-02-17T12:37:54.477Z,100908.94
2023-02-17T12:40:32.934Z,100908.03
2023-02-17T12:43:17.934Z,100907.72
2023-02-17T12:45:44.366Z,100908.53
2023-02-17T12:48:21.058Z,100925.13
2023-02-17T12:50:58.349Z,100926.44
2023-02-17T12:53:41.907Z,100918.00
2023-02-17T12:56:23.563Z,100931.72
2023-02-17T12:58:49.849Z,100936.72
2023-02-17T13:01:18.374Z,100949.53
2023-02-17T13:03:44.670Z,100950.13
2023-02-17T13:06:34.167Z,100938.72
2023-02-17T13:09:03.400Z,100944.09
2023-02-17T13:11:31.396Z,100944.81
2023-02-17T13:13:58.783Z,100938.53
2023-02-17T13:16:25.201Z,100944.91
2023-02-17T13:18:51.655Z,100943.00
2023-02-17T13:21:24.790Z,100944.03
2023-02-17T13:24:03.178Z,100946.94
2023-02-17T13:26:30.805Z,100937.53
2023-02-17T13:29:16.042Z,100942.84
2023-02-17T13:31:46.823Z,100949.63
2023-02-17T13:34:23.300Z,100977.28
2023-02-17T13:36:49.568Z,100971.59
2023-02-17T13:39:28.165Z,100969.06
2023-02-17T13:41:55.813Z,100975.16
2023-02-17T13:44:25.213Z,100968.66
2023-02-17T13:46:51.648Z,100963.72
2023-02-17T13:49:22.609Z,100975.16
2023-02-17T13:51:48.915Z,100977.78
2023-02-17T13:54:15.214Z,100979.19
2023-02-17T13:56:41.729Z,100980.88
2023-02-17T13:59:13.748Z,100987.28
2023-02-17T14:01:41.464Z,101000.97
2023-02-17T14:04:17.160Z,101004.09
2023-02-17T14:06:43.458Z,101011.28
2023-02-17T14:09:14.985Z,101023.88
2023-02-17T14:11:41.611Z,101040.97
2023-02-17T14:14:08.025Z,101041.25
2023-02-17T14:16:34.314Z,101051.31
2023-02-17T14:19:08.172Z,101052.50
2023-02-17T14:21:35.073Z,101074.06
2023-02-17T14:24:01.444Z,101061.66
2023-02-17T14:26:38.114Z,101077.66
2023-02-17T14:29:05.875Z,101076.16
2023-02-17T14:31:39.139Z,101068.13
2023-02-17T14:34:05.538Z,101078.97
2023-02-17T14:36:35.763Z,101082.22
2023-02-17T14:39:03.109Z,101076.69
2023-02-17T14:41:29.404Z,101082.56
2023-02-17T14:43:55.786Z,101084.56
2023-02-17T14:46:22.093Z,101102.91
2023-02-17T14:48:48.952Z,101093.81
2023-02-17T14:51:16.328Z,101106.28
2023-02-17T14:53:42.606Z,101095.44
2023-02-17T14:56:11.885Z,101108.50
2023-02-17T14:58:38.162Z,101116.22
2023-02-17T15:01:05.657Z,101119.41
2023-02-17T15:03:32.214Z,101135.22
2023-02-17T15:05:59.097Z,101115.09
2023-02-17T15:08:30.088Z,101118.31
2023-02-17T15:10:56.368Z,101122.56
2023-02-17T15:13:22.668Z,101118.09
2023-02-17T15:15:49.597Z,101120.34
2023-02-17T15:18:16.763Z,101113.22
2023-02-17T15:20:43.749Z,101122.19
2023-02-17T15:23:11.872Z,101119.19
2023-02-17T15:25:38.192Z,101118.09
2023-02-17T15:28:04.477Z,101122.81
2023-02-17T15:30:30.984Z,101130.94
2023-02-17T15:32:57.293Z,101140.22
2023-02-17T15:35:24.354Z,101138.94
2023-02-17T15:37:50.710Z,101138.72
2023-02-17T15:40:26.947Z,101139.75
2023-02-17T15:42:54.457Z,101148.97
2023-02-17T15:45:20.818Z,101154.09
2023-02-17T15:47:47.395Z,101151.91
2023-02-17T15:50:18.174Z,101146.06
2023-02-17T15:52:46.418Z,101137.56
2023-02-17T15:55:13.210Z,101153.22
2023-02-17T15:57:40.076Z,101154.59
2023-02-17T16:00:16.298Z,101149.31
2023-02-17T16:02:42.588Z,101148.88
2023-02-17T16:05:12.457Z,101146.97
2023-02-17T16:07:38.748Z,101144.53
2023-02-17T16:10:05.250Z,101148.09
2023-02-17T16:12:31.522Z,101154.22
2023-02-17T16:14:57.860Z,101140.44
2023-02-17T16:17:24.131Z,101148.94
2023-02-17T16:19:50.479Z,101157.81
2023-02-17T16:22:16.762Z,101163.97
2023-02-17T16:24:43.065Z,101153.78
2023-02-17T16:27:11.827Z,101157.38
2023-02-17T16:29:38.125Z,101154.00
2023-02-17T16:32:04.506Z,101163.22
2023-02-17T16:34:34.607Z,101158.78
2023-02-17T16:37:02.002Z,101167.97
2023-02-17T16:39:28.273Z,101172.88
2023-02-17T16:41:54.576Z,101176.84
2023-02-17T16:44:22.088Z,101186.06
2023-02-17T16:46:49.135Z,101180.25
2023-02-17T16:49:20.050Z,101185.94
2023-02-17T16:51:46.575Z,101190.81
2023-02-17T16:54:12.889Z,101193.06
2023-02-17T16:56:43.524Z,101196.19
2023-02-17T16:59:13.085Z,101205.34
2023-02-17T17:01:39.363Z,101214.69
2023-02-17T17:04:07.027Z,101226.50
2023-02-17T17:06:33.542Z,101225.94
2023-02-17T17:08:59.830Z,101226.16
2023-02-17T17:11:26.193Z,101218.06
2023-02-17T17:13:52.476Z,101220.72
2023-02-17T17:16:19.763Z,101217.94
2023-02-17T17:18:46.062Z,101223.91
2023-02-17T17:21:12.822Z,101232.78
2023-02-17T17:23:39.488Z,101235.63
2023-02-17T17:26:26.055Z,101237.69
2023-02-17T17:28:52.547Z,101238.44
2023-02-17T17:31:20.100Z,101242.56
2023-02-17T17:33:46.860Z,101242.88
2023-02-17T17:36:26.454Z,101257.06
2023-02-17T17:38:53.175Z,101251.81
2023-02-17T17:41:19.825Z,101263.66
2023-02-17T17:43:46.880Z,101253.97
2023-02-17T17:46:14.430Z,101256.94
2023-02-17T17:48:40.884Z,101258.06
2023-02-17T17:51:07.147Z,101258.94
2023-02-17T17:53:33.422Z,101260.47
2023-02-17T17:55:59.686Z,101260.50
2023-02-17T17:58:25.981Z,101270.47
2023-02-17T18:00:52.938Z,101265.38
2023-02-17T18:03:19.219Z,101265.09
2023-02-17T18:05:45.479Z,101263.59
2023-02-17T18:08:12.381Z,101270.22
2023-02-17T18:10:39.200Z,101262.50
2023-02-17T18:13:05.480Z,101277.13
2023-02-17T18:15:31.760Z,101278.91
2023-02-17T18:17:58.078Z,101292.31
2023-02-17T18:20:24.332Z,101291.81
2023-02-17T18:22:50.614Z,101283.25
2023-02-17T18:25:18.052Z,101287.59
2023-02-17T18:27:46.122Z,101279.94
2023-02-17T18:30:14.074Z,101289.44
2023-02-17T18:32:40.453Z,101299.13
2023-02-17T18:35:06.852Z,101302.97
2023-02-17T18:37:33.300Z,101299.34
2023-02-17T18:39:59.990Z,101312.97
2023-02-17T18:42:26.258Z,101310.00
2023-02-17T18:44:53.549Z,101312.50
2023-02-17T18:47:21.128Z,101309.66
2023-02-17T18:49:47.547Z,101309.34
2023-02-17T18:52:13.808Z,101306.88
2023-02-17T18:54:44.044Z,101311.59
2023-02-17T18:57:10.430Z,101310.97
2023-02-17T18:59:36.711Z,101313.13
2023-02-17T19:02:04.041Z,101324.19
2023-02-17T19:04:30.294Z,101317.53
2023-02-17T19:06:56.794Z,101324.00
2023-02-17T19:09:23.056Z,101326.09
2023-02-17T19:11:49.334Z,101325.97
2023-02-17T19:14:15.595Z,101317.66
2023-02-17T19:16:41.859Z,101324.84
2023-02-17T19:19:08.120Z,101317.97
2023-02-17T19:21:36.377Z,101321.72
2023-02-17T19:24:02.760Z,101326.78
2023-02-17T19:26:29.025Z,101326.63
2023-02-17T19:28:55.331Z,101332.91
2023-02-17T19:31:21.789Z,101324.03
2023-02-17T19:33:48.096Z,101323.56
2023-02-17T19:36:18.308Z,101320.75
2023-02-17T19:38:44.844Z,101321.84
2023-02-17T19:41:11.432Z,101320.97
2023-02-17T19:43:37.712Z,101317.72
2023-02-17T19:46:04.001Z,101322.00
2023-02-17T19:48:30.351Z,101329.78
2023-02-17T19:51:04.195Z,101323.28
2023-02-17T19:53:33.713Z,101312.00
2023-02-17T19:56:08.058Z,101324.66
2023-02-17T19:58:36.125Z,101330.81
2023-02-17T20:01:06.232Z,101337.16
2023-02-17T20:03:32.513Z,101349.50
2023-02-17T20:06:02.522Z,101358.28
2023-02-17T20:08:28.819Z,101357.41
2023-02-17T20:10:55.089Z,101376.84
2023-02-17T20:13:21.372Z,101383.06
2023-02-17T20:15:47.672Z,101384.38
2023-02-17T20:18:14.013Z,101395.34
2023-02-17T20:20:40.378Z,101399.63
2023-02-17T20:23:07.125Z,101405.59
2023-02-17T20:25:33.415Z,101414.25
2023-02-17T20:27:59.704Z,101422.44
2023-02-17T20:30:26.036Z,101425.16
2023-02-17T20:32:52.399Z,101432.53
2023-02-17T20:35:18.787Z,101436.41
2023-02-17T20:37:45.076Z,101438.22
2023-02-17T20:40:11.348Z,101433.31
2023-02-17T20:42:37.634Z,101445.22
2023-02-17T20:45:04.265Z,101444.94
2023-02-17T20:47:30.570Z,101453.75
2023-02-17T20:49:56.852Z,101448.78
2023-02-17T20:52:23.131Z,101471.22
2023-02-17T20:54:49.772Z,101461.16
2023-02-17T20:57:16.106Z,101460.59
2023-02-17T20:59:42.407Z,101469.19
2023-02-17T21:02:09.969Z,101479.13
2023-02-17T21:04:36.262Z,101475.13
2023-02-17T21:07:02.596Z,101478.69
2023-02-17T21:09:28.891Z,101484.38
2023-02-17T21:11:55.243Z,101473.56
2023-02-17T21:14:21.527Z,101473.53
2023-02-17T21:16:47.816Z,101472.06
2023-02-17T21:19:14.135Z,101472.22
2023-02-17T21:21:41.020Z,101471.31
2023-02-17T21:24:07.520Z,101462.72
2023-02-17T21:26:33.821Z,101471.66
2023-02-17T21:29:00.096Z,101473.53
2023-02-17T21:31:27.720Z,101477.63
2023-02-17T21:33:54.146Z,101481.50
2023-02-17T21:36:20.406Z,101473.78
2023-02-17T21:38:47.186Z,101482.56
2023-02-17T21:41:14.847Z,101487.75
2023-02-17T21:43:59.839Z,101482.81
2023-02-17T21:46:26.134Z,101468.97
2023-02-17T21:48:53.402Z,101477.38
2023-02-17T21:51:19.885Z,101475.09
2023-02-17T21:53:46.242Z,101489.97
2023-02-17T21:56:12.515Z,101479.97
2023-02-17T21:58:38.817Z,101490.84
2023-02-17T22:01:05.390Z,101483.31
2023-02-17T22:03:31.946Z,101495.50
2023-02-17T22:05:58.277Z,101503.75
2023-02-17T22:08:24.601Z,101501.91
2023-02-17T22:10:50.881Z,101505.25
2023-02-17T22:13:17.162Z,101505.63
2023-02-17T22:15:43.460Z,101504.09
2023-02-17T22:18:09.721Z,101508.28
2023-02-17T22:20:36.450Z,101506.47
2023-02-17T22:23:02.735Z,101499.00
2023-02-17T22:25:29.030Z,101498.50
2023-02-17T22:27:55.315Z,101490.81
2023-02-17T22:30:21.641Z,101500.00
2023-02-17T22:32:47.974Z,101497.75
2023-02-17T22:35:14.265Z,101501.16
2023-02-17T22:37:40.548Z,101490.16
2023-02-17T22:40:09.233Z,101491.75
2023-02-17T22:42:35.507Z,101491.84
2023-02-17T22:45:01.800Z,101500.38
2023-02-17T22:47:28.081Z,101489.28
2023-02-17T22:49:54.375Z,101486.75
2023-02-17T22:52:20.680Z,101484.13
2023-02-17T22:54:47.108Z,101478.50
2023-02-17T22:57:13.386Z,101479.31
2023-02-17T22:59:39.659Z,101487.38
2023-02-17T23:02:05.934Z,101477.91
2023-02-17T23:04:32.285Z,101481.56
2023-02-17T23:06:59.094Z,101480.66
2023-02-17T23:09:25.402Z,101482.06
2023-02-17T23:11:54.351Z,101492.03
2023-02-17T23:14:20.748Z,101488.81
2023-02-17T23:16:47.134Z,101485.41
2023-02-17T23:19:15.839Z,101490.00
2023-02-17T23:21:43.018Z,101479.13
2023-02-17T23:24:09.304Z,101479.13
2023-02-17T23:26:35.589Z,101488.53
2023-02-17T23:29:01.867Z,101486.88
2023-02-17T23:31:28.266Z,101474.59
2023-02-17T23:33:54.640Z,101476.56
2023-02-17T23:36:20.928Z,101481.97
2023-02-17T23:38:47.227Z,101467.34
2023-02-17T23:41:13.497Z,101470.66
2023-02-17T23:43:39.810Z,101471.34
2023-02-17T23:46:06.583Z,101465.53
2023-02-17T23:48:33.140Z,101472.38
2023-02-17T23:51:00.557Z,101465.72
2023-02-17T23:53:26.886Z,101470.56
2023-02-17T23:56:22.653Z,101459.78
2023-02-17T23:58:48.920Z,101463.97
